Main page
METAR-TAF:

METAR-TAF

Airports :

Le Touquet – Côte d'Opale Airport

Le Touquet, France

latitude: 50-30-53N, longitude: 001-37-39E, elevation: 6 m

Current weather observation

The report was made 16 minutes ago, at 09:30 UTC
Wind 7 kt from the Northeast
Temperature 15°C
Humidity 72%
Pressure 1008 hPa
Visibility 10 km or more
no clouds below 1500 m and no cumulonimbus

METAR: LFAT 190930Z AUTO 05007KT CAVOK 15/10 Q1008 TEMPO 2000 SHRA BR BKN030TCU

Time: 11:46 (09:46 UTC)

Forecast

The report was made 1 hour and 46 minutes ago, at 08:00 UTC
Forecast valid from 19 at 09 UTC to 19 at 18 UTC
Wind 6 kt from the North
Visibility: 7000 m
Broken clouds at a height of 3000 ft
Temporary
from 19 at 10 UTC to 19 at 18 UTC
Visibility: 2000 m
Broken clouds at a height of 3000 ft, Towering cumulus.
rain showers, mist

TAF: LFAT 190800Z 1909/1918 01006KT 7000 BKN030 TEMPO 1910/1918 2000 SHRA BR BKN030TCU

Weather observations and forecasts of more than 4000 airports (METAR and TAF reports).

The available stations are represented by yellow and red dots on the map.

Hover mouse over dot to see the name of the station.

Then click to see weather observations and forecasts.

To change the map : click on the green buttons with a black cross to zoom in, on the green button with a dash to zoom out, or on the green arrows for adjacent maps.


METAR-TAF: